createdAt,value
2018-10-19T00:02:10.834Z,12.89
2018-10-19T00:04:38.874Z,12.90
2018-10-19T00:07:06.203Z,12.83
2018-10-19T00:09:33.861Z,12.70
2018-10-19T00:12:01.401Z,12.52
2018-10-19T00:14:30.174Z,12.50
2018-10-19T00:16:57.719Z,12.53
2018-10-19T00:19:26.034Z,12.49
2018-10-19T00:21:53.431Z,12.43
2018-10-19T00:24:20.649Z,12.47
2018-10-19T00:26:50.202Z,12.49
2018-10-19T00:29:18.487Z,12.49
2018-10-19T00:31:47.056Z,12.47
2018-10-19T00:34:14.862Z,12.56
2018-10-19T00:36:42.289Z,12.58
2018-10-19T00:39:11.582Z,12.57
2018-10-19T00:41:38.942Z,12.45
2018-10-19T00:44:06.696Z,12.41
2018-10-19T00:46:34.184Z,12.33
2018-10-19T00:49:03.876Z,12.37
2018-10-19T00:51:31.239Z,12.33
2018-10-19T00:54:00.123Z,12.25
2018-10-19T00:56:34.051Z,12.15
2018-10-19T00:59:01.891Z,12.20
2018-10-19T01:01:29.752Z,12.07
2018-10-19T01:03:57.135Z,12.05
2018-10-19T01:06:24.625Z,12.07
2018-10-19T01:08:54.121Z,12.13
2018-10-19T01:11:22.862Z,12.13
2018-10-19T01:13:50.307Z,12.04
2018-10-19T01:16:17.732Z,11.98
2018-10-19T01:18:45.158Z,12.08
2018-10-19T01:21:12.597Z,12.13
2018-10-19T01:23:40.465Z,12.10
2018-10-19T01:26:08.151Z,12.05
2018-10-19T01:28:36.331Z,11.99
2018-10-19T01:31:03.665Z,12.06
2018-10-19T01:33:31.161Z,12.02
2018-10-19T01:36:00.482Z,12.00
2018-10-19T01:38:28.017Z,11.98
2018-10-19T01:40:55.667Z,11.91
2018-10-19T01:43:23.072Z,11.80
2018-10-19T01:45:55.423Z,11.83
2018-10-19T01:48:23.411Z,11.78
2018-10-19T01:50:52.254Z,11.83
2018-10-19T01:53:21.889Z,11.86
2018-10-19T01:55:52.374Z,11.86
2018-10-19T01:58:20.003Z,11.89
2018-10-19T02:00:53.500Z,10.93
2018-10-19T02:03:21.082Z,11.88
2018-10-19T02:05:48.485Z,11.80
2018-10-19T02:08:15.888Z,11.82
2018-10-19T02:10:44.169Z,11.83
2018-10-19T02:13:13.207Z,11.83
2018-10-19T02:15:40.648Z,11.84
2018-10-19T02:18:08.026Z,11.91
2018-10-19T02:20:35.483Z,11.91
2018-10-19T02:23:02.735Z,11.90
2018-10-19T02:25:30.179Z,11.79
2018-10-19T02:27:57.809Z,11.78
2018-10-19T02:30:28.100Z,11.68
2018-10-19T02:32:57.714Z,11.62
2018-10-19T02:35:26.269Z,11.59
2018-10-19T02:37:54.546Z,11.58
2018-10-19T02:40:23.188Z,11.23
2018-10-19T02:42:51.554Z,11.06
2018-10-19T02:45:19.397Z,10.98
2018-10-19T02:47:47.104Z,10.97
2018-10-19T02:50:14.456Z,11.08
2018-10-19T02:52:44.811Z,11.20
2018-10-19T02:55:12.253Z,11.15
2018-10-19T02:57:40.748Z,11.12
2018-10-19T03:00:09.680Z,11.09
2018-10-19T03:02:37.217Z,10.96
2018-10-19T03:05:05.740Z,10.95
2018-10-19T03:07:33.327Z,10.99
2018-10-19T03:10:00.714Z,10.99
2018-10-19T03:12:30.222Z,11.00
2018-10-19T03:15:00.233Z,10.92
2018-10-19T03:17:27.735Z,10.91
2018-10-19T03:19:55.398Z,10.84
2018-10-19T03:22:23.680Z,10.83
2018-10-19T03:24:52.113Z,10.91
2018-10-19T03:27:20.144Z,10.95
2018-10-19T03:29:47.348Z,10.98
2018-10-19T03:33:39.929Z,10.97
2018-10-19T03:36:07.702Z,10.88
2018-10-19T03:38:36.336Z,10.82
2018-10-19T03:41:04.906Z,10.90
2018-10-19T03:43:32.353Z,10.87
2018-10-19T03:46:00.002Z,10.85
2018-10-19T03:48:28.083Z,10.91
2018-10-19T03:50:57.749Z,10.85
2018-10-19T03:53:25.120Z,10.90
2018-10-19T03:55:53.380Z,10.82
2018-10-19T03:58:20.855Z,10.81
2018-10-19T04:00:48.459Z,10.79
2018-10-19T04:03:15.791Z,10.69
2018-10-19T04:05:43.964Z,10.68
2018-10-19T04:08:11.476Z,10.65
2018-10-19T04:10:38.841Z,10.76
2018-10-19T04:13:06.200Z,10.84
2018-10-19T04:15:33.671Z,10.89
2018-10-19T04:18:01.224Z,10.92
2018-10-19T04:20:29.576Z,10.95
2018-10-19T04:23:03.957Z,11.00
2018-10-19T04:25:31.526Z,11.00
2018-10-19T04:27:59.278Z,10.85
2018-10-19T04:30:28.853Z,10.74
2018-10-19T04:32:58.691Z,10.43
2018-10-19T04:35:28.247Z,10.28
2018-10-19T04:37:55.571Z,10.23
2018-10-19T04:40:23.367Z,10.10
2018-10-19T04:42:52.930Z,10.14
2018-10-19T04:45:22.643Z,10.20
2018-10-19T04:47:50.210Z,10.26
2018-10-19T04:50:18.329Z,10.24
2018-10-19T04:52:45.902Z,10.25
2018-10-19T04:55:15.242Z,10.25
2018-10-19T04:57:44.511Z,10.32
2018-10-19T05:00:13.919Z,10.39
2018-10-19T05:02:43.997Z,10.54
2018-10-19T05:05:11.547Z,10.59
2018-10-19T05:07:39.210Z,10.71
2018-10-19T05:10:07.735Z,10.65
2018-10-19T05:12:35.157Z,10.67
2018-10-19T05:15:03.010Z,10.59
2018-10-19T05:17:31.466Z,10.43
2018-10-19T05:20:01.036Z,10.23
2018-10-19T05:22:28.802Z,10.06
2018-10-19T05:24:57.844Z,10.04
2018-10-19T05:27:26.252Z,10.02
2018-10-19T05:29:53.692Z,9.99
2018-10-19T05:32:23.467Z,9.91
2018-10-19T05:34:51.092Z,9.86
2018-10-19T05:37:19.554Z,9.91
2018-10-19T05:39:47.283Z,10.01
2018-10-19T05:42:16.827Z,10.02
2018-10-19T05:44:45.656Z,10.03
2018-10-19T05:47:15.381Z,10.14
2018-10-19T05:49:43.789Z,10.12
2018-10-19T05:52:11.382Z,10.06
2018-10-19T05:54:39.666Z,9.99
2018-10-19T05:57:09.371Z,9.99
2018-10-19T05:59:36.852Z,10.09
2018-10-19T06:02:04.528Z,10.19
2018-10-19T06:04:33.510Z,10.31
2018-10-19T06:07:00.878Z,10.36
2018-10-19T06:09:29.358Z,10.43
2018-10-19T06:11:56.711Z,10.35
2018-10-19T06:14:25.323Z,10.39
2018-10-19T06:16:52.759Z,10.41
2018-10-19T06:19:20.438Z,10.52
2018-10-19T06:21:49.698Z,10.48
2018-10-19T06:24:17.680Z,10.37
2018-10-19T06:26:45.247Z,10.36
2018-10-19T06:29:14.906Z,10.41
2018-10-19T06:31:42.110Z,10.47
2018-10-19T06:34:09.513Z,10.31
2018-10-19T06:36:39.287Z,10.30
2018-10-19T06:39:08.024Z,10.12
2018-10-19T06:41:35.373Z,10.46
2018-10-19T06:44:03.722Z,10.31
2018-10-19T06:46:33.636Z,10.23
2018-10-19T06:49:01.931Z,10.26
2018-10-19T06:51:29.400Z,10.31
2018-10-19T06:53:56.849Z,10.33
2018-10-19T06:56:26.678Z,10.27
2018-10-19T06:58:56.360Z,10.42
2018-10-19T07:01:24.030Z,10.60
2018-10-19T07:03:51.465Z,10.68
2018-10-19T07:06:18.886Z,10.83
2018-10-19T07:08:46.859Z,10.94
2018-10-19T07:11:14.496Z,11.03
2018-10-19T07:13:41.863Z,11.00
2018-10-19T07:16:09.241Z,10.88
2018-10-19T07:18:38.517Z,10.87
2018-10-19T07:21:05.858Z,10.82
2018-10-19T07:23:33.161Z,10.92
2018-10-19T07:26:01.643Z,10.93
2018-10-19T07:28:31.600Z,10.99
2018-10-19T07:31:02.703Z,11.06
2018-10-19T07:33:31.775Z,11.19
2018-10-19T07:36:02.164Z,11.30
2018-10-19T07:38:31.665Z,11.44
2018-10-19T07:41:00.692Z,11.46
2018-10-19T07:43:27.966Z,11.56
2018-10-19T07:45:55.768Z,11.66
2018-10-19T07:48:23.330Z,11.81
2018-10-19T07:50:51.629Z,11.84
2018-10-19T07:53:20.708Z,11.88
2018-10-19T07:55:48.867Z,11.89
2018-10-19T07:58:16.190Z,11.95
2018-10-19T08:00:43.647Z,12.04
2018-10-19T08:03:10.888Z,12.03
2018-10-19T08:05:38.473Z,12.08
2018-10-19T08:08:07.457Z,12.10
2018-10-19T08:10:34.724Z,12.07
2018-10-19T08:13:02.282Z,12.06
2018-10-19T08:15:31.652Z,12.11
2018-10-19T08:20:08.636Z,12.24
2018-10-19T08:22:37.868Z,12.26
2018-10-19T08:25:06.892Z,12.32
2018-10-19T08:27:35.183Z,12.38
2018-10-19T08:30:05.382Z,12.50
2018-10-19T08:32:34.505Z,12.54
2018-10-19T08:35:01.984Z,12.75
2018-10-19T08:37:29.959Z,12.95
2018-10-19T08:39:57.425Z,12.95
2018-10-19T08:42:24.771Z,12.99
2018-10-19T08:44:54.393Z,13.03
2018-10-19T08:47:21.777Z,12.81
2018-10-19T08:49:50.421Z,12.85
2018-10-19T08:52:17.803Z,12.60
2018-10-19T08:54:45.263Z,12.98
2018-10-19T08:57:12.900Z,13.44
2018-10-19T08:59:40.366Z,13.53
2018-10-19T09:02:08.290Z,13.36
2018-10-19T09:04:37.492Z,13.53
2018-10-19T09:07:04.978Z,14.27
2018-10-19T09:09:33.089Z,15.03
2018-10-19T09:12:01.726Z,14.80
2018-10-19T09:14:46.029Z,14.37
2018-10-19T09:17:13.574Z,14.19
2018-10-19T09:19:41.072Z,14.35
2018-10-19T09:22:08.462Z,14.54
2018-10-19T09:24:36.472Z,14.83
2018-10-19T09:27:04.487Z,15.49
2018-10-19T09:29:33.127Z,16.66
2018-10-19T09:32:01.199Z,17.21
2018-10-19T09:34:29.238Z,17.34
2018-10-19T09:36:57.231Z,17.62
2018-10-19T09:39:24.695Z,18.27
2018-10-19T09:41:51.969Z,19.14
2018-10-19T09:44:19.440Z,19.67
2018-10-19T09:46:54.379Z,19.67
2018-10-19T09:49:24.692Z,19.65
2018-10-19T09:51:53.395Z,20.01
2018-10-19T09:54:20.771Z,20.33
2018-10-19T09:56:49.203Z,20.42
2018-10-19T09:59:17.285Z,20.97
2018-10-19T10:01:45.675Z,21.43
2018-10-19T10:04:13.862Z,21.75
2018-10-19T10:06:41.363Z,22.01
2018-10-19T10:09:15.009Z,22.23
2018-10-19T10:11:43.483Z,22.43
2018-10-19T10:14:12.046Z,22.64
2018-10-19T10:16:40.859Z,22.25
2018-10-19T10:19:08.503Z,22.64
2018-10-19T10:21:37.481Z,22.84
2018-10-19T10:24:06.279Z,22.48
2018-10-19T10:26:34.796Z,22.34
2018-10-19T10:29:02.277Z,22.11
2018-10-19T10:31:29.788Z,21.57
2018-10-19T10:33:59.422Z,21.45
2018-10-19T10:36:26.856Z,21.81
2018-10-19T10:38:54.319Z,21.50
2018-10-19T10:41:21.620Z,21.70
2018-10-19T10:43:48.956Z,22.26
2018-10-19T10:46:16.460Z,22.50
2018-10-19T10:48:47.733Z,22.61
2018-10-19T10:51:15.722Z,22.79
2018-10-19T10:53:44.641Z,22.94
2018-10-19T10:56:11.909Z,22.94
2018-10-19T10:58:42.143Z,23.15
2018-10-19T11:01:11.753Z,23.12
2018-10-19T11:03:51.703Z,23.19
2018-10-19T11:06:20.757Z,23.79
2018-10-19T11:08:48.760Z,24.56
2018-10-19T11:11:16.672Z,23.82
2018-10-19T11:13:44.476Z,23.39
2018-10-19T11:16:14.157Z,23.63
2018-10-19T11:18:42.318Z,24.12
2018-10-19T11:21:11.171Z,23.75
2018-10-19T11:23:40.788Z,24.37
2018-10-19T11:26:08.351Z,25.27
2018-10-19T11:28:35.868Z,25.48
2018-10-19T11:31:07.352Z,25.64
2018-10-19T11:33:34.813Z,26.05
2018-10-19T11:36:06.276Z,26.02
2018-10-19T11:38:33.889Z,26.03
2018-10-19T11:41:02.339Z,26.13
2018-10-19T11:43:29.606Z,25.76
2018-10-19T11:45:57.679Z,25.59
2018-10-19T11:48:27.438Z,25.48
2018-10-19T11:50:56.739Z,25.65
2018-10-19T11:53:24.114Z,26.06
2018-10-19T11:55:51.441Z,25.94
2018-10-19T11:58:19.748Z,26.27
2018-10-19T12:00:48.014Z,26.48
2018-10-19T12:03:15.977Z,26.61
2018-10-19T12:05:44.457Z,26.56
2018-10-19T12:08:12.376Z,26.23
2018-10-19T12:10:39.872Z,25.96
2018-10-19T12:13:07.307Z,25.42
2018-10-19T12:15:34.737Z,25.58
2018-10-19T12:18:02.137Z,25.77
2018-10-19T12:20:29.566Z,25.59
2018-10-19T12:22:56.900Z,25.45
2018-10-19T12:25:24.331Z,25.19
2018-10-19T12:27:51.748Z,25.45
2018-10-19T12:30:19.212Z,25.53
2018-10-19T12:32:47.963Z,25.90
2018-10-19T12:35:16.242Z,26.12
2018-10-19T12:37:43.641Z,25.40
2018-10-19T12:40:13.597Z,25.20
2018-10-19T12:42:41.030Z,25.05
2018-10-19T12:45:20.249Z,24.95
2018-10-19T12:47:50.190Z,24.57
2018-10-19T12:50:18.915Z,24.36
2018-10-19T12:52:50.933Z,24.34
2018-10-19T12:55:18.955Z,24.33
2018-10-19T12:57:47.530Z,23.66
2018-10-19T13:01:39.395Z,23.79
2018-10-19T13:04:06.805Z,23.73
2018-10-19T13:06:35.298Z,23.69
2018-10-19T13:09:09.059Z,23.80
2018-10-19T13:11:38.055Z,23.92
2018-10-19T13:14:05.545Z,23.97
2018-10-19T13:16:33.074Z,24.29
2018-10-19T13:19:01.683Z,24.14
2018-10-19T13:21:29.760Z,24.18
2018-10-19T13:23:57.260Z,24.43
2018-10-19T13:26:24.963Z,24.23
2018-10-19T13:28:53.250Z,24.07
2018-10-19T13:31:20.763Z,24.10
2018-10-19T13:33:50.298Z,24.01
2018-10-19T13:36:18.986Z,23.77
2018-10-19T13:38:46.935Z,23.70
2018-10-19T13:41:15.183Z,23.69
2018-10-19T13:43:43.076Z,23.90
2018-10-19T13:46:10.711Z,23.79
2018-10-19T13:48:38.622Z,23.99
2018-10-19T13:51:06.186Z,24.34
2018-10-19T13:53:33.414Z,24.59
2018-10-19T13:56:00.696Z,24.71
2018-10-19T13:58:28.546Z,24.84
2018-10-19T14:00:55.832Z,25.02
2018-10-19T14:03:23.142Z,24.94
2018-10-19T14:05:51.539Z,24.97
2018-10-19T14:08:18.804Z,24.75
2018-10-19T14:10:46.743Z,24.75
2018-10-19T14:13:14.368Z,24.84
2018-10-19T14:15:42.239Z,24.94
2018-10-19T14:18:11.140Z,24.97
2018-10-19T14:20:38.498Z,24.84
2018-10-19T14:23:06.833Z,24.71
2018-10-19T14:25:34.228Z,24.63
2018-10-19T14:28:02.135Z,24.68
2018-10-19T14:30:34.368Z,24.56
2018-10-19T14:33:03.021Z,24.08
2018-10-19T14:35:31.625Z,24.06
2018-10-19T14:38:00.314Z,24.24
2018-10-19T14:40:27.700Z,24.25
2018-10-19T14:42:55.996Z,24.32
2018-10-19T14:45:25.376Z,24.16
2018-10-19T14:47:52.792Z,24.05
2018-10-19T14:50:20.274Z,24.03
2018-10-19T14:52:47.703Z,23.91
2018-10-19T14:55:17.493Z,23.74
2018-10-19T14:57:44.917Z,23.63
2018-10-19T15:00:13.618Z,23.68
2018-10-19T15:02:42.462Z,23.81
2018-10-19T15:05:13.175Z,23.81
2018-10-19T15:07:40.529Z,23.65
2018-10-19T15:10:11.681Z,23.58
2018-10-19T15:12:41.489Z,23.53
2018-10-19T15:15:11.660Z,23.59
2018-10-19T15:17:54.233Z,23.34
2018-10-19T15:20:21.549Z,23.30
2018-10-19T15:22:48.959Z,23.34
2018-10-19T15:25:18.460Z,23.26
2018-10-19T15:27:46.285Z,23.16
2018-10-19T15:30:15.866Z,23.10
2018-10-19T15:32:43.250Z,22.95
2018-10-19T15:35:11.184Z,23.00
2018-10-19T15:37:39.180Z,22.92
2018-10-19T15:40:08.255Z,22.85
2018-10-19T15:42:39.535Z,22.57
2018-10-19T15:45:10.764Z,22.36
2018-10-19T15:47:40.302Z,22.34
2018-10-19T15:50:08.127Z,22.10
2018-10-19T15:52:35.425Z,21.93
2018-10-19T15:55:04.930Z,21.68
2018-10-19T15:57:34.506Z,21.55
2018-10-19T16:00:01.970Z,21.23
2018-10-19T16:02:29.246Z,21.01
2018-10-19T16:04:58.253Z,20.78
2018-10-19T16:07:26.348Z,20.50
2018-10-19T16:09:53.670Z,20.28
2018-10-19T16:12:21.036Z,20.20
2018-10-19T16:14:48.403Z,19.78
2018-10-19T16:17:15.717Z,19.62
2018-10-19T16:19:43.046Z,19.43
2018-10-19T16:22:11.364Z,19.34
2018-10-19T16:24:38.726Z,19.17
2018-10-19T16:27:08.283Z,19.11
2018-10-19T16:29:35.772Z,18.85
2018-10-19T16:32:03.289Z,18.68
2018-10-19T16:34:30.675Z,18.48
2018-10-19T16:37:00.028Z,18.29
2018-10-19T16:39:27.316Z,18.12
2018-10-19T16:41:55.299Z,17.99
2018-10-19T16:44:22.628Z,17.93
2018-10-19T16:46:51.286Z,17.81
2018-10-19T16:49:20.531Z,17.71
2018-10-19T16:51:48.341Z,17.60
2018-10-19T16:54:15.834Z,17.40
2018-10-19T16:56:43.346Z,17.41
2018-10-19T16:59:11.056Z,17.36
2018-10-19T17:01:38.855Z,17.32
2018-10-19T17:04:06.510Z,17.23
2018-10-19T17:06:34.588Z,17.23
2018-10-19T17:09:07.238Z,17.18
2018-10-19T17:11:34.538Z,17.08
2018-10-19T17:14:02.183Z,17.01
2018-10-19T17:16:30.766Z,16.81
2018-10-19T17:18:58.293Z,16.72
2018-10-19T17:21:26.709Z,16.45
2018-10-19T17:23:54.349Z,16.48
2018-10-19T17:26:23.411Z,16.45
2018-10-19T17:28:50.786Z,16.30
2018-10-19T17:31:19.334Z,16.29
2018-10-19T17:34:19.339Z,16.29
2018-10-19T17:36:47.482Z,16.11
2018-10-19T17:39:15.386Z,16.10
2018-10-19T17:41:43.006Z,16.02
2018-10-19T17:44:13.249Z,15.84
2018-10-19T17:46:41.660Z,15.68
2018-10-19T17:49:12.105Z,15.61
2018-10-19T17:51:42.384Z,15.56
2018-10-19T17:54:10.284Z,15.55
2018-10-19T17:56:37.533Z,15.60
2018-10-19T17:59:05.092Z,15.49
2018-10-19T18:01:32.449Z,15.39
2018-10-19T18:04:01.258Z,15.39
2018-10-19T18:06:28.752Z,15.36
2018-10-19T18:08:57.594Z,15.31
2018-10-19T18:11:26.258Z,15.23
2018-10-19T18:13:54.082Z,15.19
2018-10-19T18:16:23.015Z,15.12
2018-10-19T18:18:50.450Z,15.08
2018-10-19T18:21:18.010Z,15.04
2018-10-19T18:23:46.145Z,14.99
2018-10-19T18:27:39.255Z,14.84
2018-10-19T18:30:07.108Z,14.67
2018-10-19T18:32:35.518Z,14.65
2018-10-19T18:35:03.024Z,14.56
2018-10-19T18:37:30.874Z,14.57
2018-10-19T18:39:59.134Z,14.48
2018-10-19T18:42:26.511Z,14.40
2018-10-19T18:44:54.276Z,14.35
2018-10-19T18:47:21.944Z,14.28
2018-10-19T18:49:50.288Z,14.34
2018-10-19T18:52:19.841Z,14.40
2018-10-19T18:54:48.622Z,14.25
2018-10-19T18:57:16.193Z,14.25
2018-10-19T18:59:43.921Z,14.18
2018-10-19T19:02:11.491Z,14.23
2018-10-19T19:04:38.842Z,14.26
2018-10-19T19:07:08.621Z,14.23
2018-10-19T19:09:36.675Z,13.88
2018-10-19T19:12:04.317Z,13.97
2018-10-19T19:14:31.767Z,13.94
2018-10-19T19:16:59.097Z,13.87
2018-10-19T19:19:29.172Z,13.82
2018-10-19T19:21:56.574Z,13.82
2018-10-19T19:24:30.389Z,13.79
2018-10-19T19:26:59.282Z,13.70
2018-10-19T19:29:26.639Z,13.71
2018-10-19T19:31:54.240Z,13.76
2018-10-19T19:34:26.040Z,13.61
2018-10-19T19:36:55.225Z,13.46
2018-10-19T19:39:22.515Z,13.46
2018-10-19T19:41:56.655Z,13.44
2018-10-19T19:44:24.078Z,13.46
2018-10-19T19:46:51.480Z,13.43
2018-10-19T19:49:25.019Z,13.45
2018-10-19T19:51:52.503Z,13.41
2018-10-19T19:54:20.929Z,13.42
2018-10-19T19:56:48.893Z,13.43
2018-10-19T19:59:16.340Z,13.31
2018-10-19T20:01:45.054Z,13.00
2018-10-19T20:04:13.475Z,12.99
2018-10-19T20:06:43.105Z,13.06
2018-10-19T20:09:10.438Z,13.04
2018-10-19T20:11:38.083Z,13.09
2018-10-19T20:14:05.625Z,13.17
2018-10-19T20:16:32.916Z,13.16
2018-10-19T20:19:01.969Z,13.13
2018-10-19T20:21:30.239Z,13.18
2018-10-19T20:23:59.531Z,13.14
2018-10-19T20:26:26.865Z,13.15
2018-10-19T20:28:55.201Z,13.04
2018-10-19T20:31:24.099Z,12.99
2018-10-19T20:33:51.699Z,12.99
2018-10-19T20:36:22.176Z,13.00
2018-10-19T20:38:52.391Z,12.93
2018-10-19T20:41:19.782Z,12.83
2018-10-19T20:43:47.054Z,12.70
2018-10-19T20:46:14.672Z,12.51
2018-10-19T20:48:43.774Z,12.41
2018-10-19T20:51:11.227Z,12.44
2018-10-19T20:53:40.253Z,12.47
2018-10-19T20:56:07.756Z,12.58
2018-10-19T20:58:35.233Z,12.51
2018-10-19T21:01:03.459Z,12.50
2018-10-19T21:03:30.843Z,12.54
2018-10-19T21:05:58.086Z,12.54
2018-10-19T21:08:25.486Z,12.46
2018-10-19T21:10:52.889Z,12.33
2018-10-19T21:13:20.326Z,12.17
2018-10-19T21:15:47.646Z,12.22
2018-10-19T21:18:14.978Z,12.30
2018-10-19T21:20:42.246Z,12.30
2018-10-19T21:23:09.583Z,12.27
2018-10-19T21:25:36.974Z,12.28
2018-10-19T21:28:04.798Z,12.22
2018-10-19T21:30:32.133Z,12.21
2018-10-19T21:32:59.534Z,12.22
2018-10-19T21:35:28.742Z,12.20
2018-10-19T21:37:56.307Z,12.17
2018-10-19T21:40:24.663Z,12.04
2018-10-19T21:42:52.052Z,11.97
2018-10-19T21:45:19.505Z,11.99
2018-10-19T21:47:48.637Z,12.02
2018-10-19T21:50:16.001Z,12.09
2018-10-19T21:52:43.486Z,12.00
2018-10-19T21:55:11.468Z,11.97
2018-10-19T21:57:40.861Z,11.97
2018-10-19T22:00:08.827Z,11.98
2018-10-19T22:02:36.966Z,12.01
2018-10-19T22:05:07.303Z,12.03
2018-10-19T22:07:34.950Z,12.07
2018-10-19T22:10:02.311Z,12.05
2018-10-19T22:12:30.918Z,11.94
2018-10-19T22:15:00.481Z,11.46
2018-10-19T22:17:28.551Z,11.41
2018-10-19T22:19:58.747Z,11.38
2018-10-19T22:22:26.050Z,11.32
2018-10-19T22:24:54.256Z,11.40
2018-10-19T22:27:21.594Z,11.30
2018-10-19T22:29:49.212Z,11.15
2018-10-19T22:32:16.549Z,10.99
2018-10-19T22:34:43.847Z,11.09
2018-10-19T22:37:11.260Z,11.15
2018-10-19T22:39:38.575Z,11.02
2018-10-19T22:42:05.872Z,11.08
2018-10-19T22:44:33.668Z,11.09
2018-10-19T22:47:02.052Z,11.13
2018-10-19T22:49:29.364Z,11.16
2018-10-19T22:51:58.394Z,11.22
2018-10-19T22:54:26.331Z,11.14
2018-10-19T22:56:53.608Z,11.15
2018-10-19T22:59:21.508Z,11.11
2018-10-19T23:01:49.046Z,11.03
2018-10-19T23:04:16.438Z,11.09
2018-10-19T23:06:44.016Z,11.15
2018-10-19T23:09:11.438Z,11.16
2018-10-19T23:11:38.823Z,11.14
2018-10-19T23:14:06.265Z,11.11
2018-10-19T23:16:34.088Z,11.12
2018-10-19T23:19:02.146Z,11.10
2018-10-19T23:21:30.562Z,11.06
2018-10-19T23:23:58.419Z,11.07
2018-10-19T23:26:27.469Z,11.14
2018-10-19T23:28:55.543Z,11.03
2018-10-19T23:31:23.961Z,11.10
2018-10-19T23:33:51.134Z,11.12
2018-10-19T23:36:18.556Z,11.07
2018-10-19T23:38:45.877Z,11.01
2018-10-19T23:41:13.425Z,10.99
2018-10-19T23:43:42.131Z,11.01
2018-10-19T23:46:09.428Z,11.02
2018-10-19T23:48:38.732Z,11.02
2018-10-19T23:51:06.072Z,10.94
2018-10-19T23:53:33.355Z,10.64
2018-10-19T23:56:00.882Z,10.46
2018-10-19T23:58:28.651Z,10.26
